createdAt,value
2022-09-09T00:00:37.791Z,2.10
2022-09-09T00:03:04.676Z,2.33
2022-09-09T00:05:31.962Z,2.33
2022-09-09T00:07:56.547Z,2.15
2022-09-09T00:10:23.347Z,1.60
2022-09-09T00:12:52.615Z,2.47
2022-09-09T00:15:16.701Z,1.83
2022-09-09T00:17:41.801Z,2.15
2022-09-09T00:20:08.054Z,1.40
2022-09-09T00:22:33.075Z,1.42
2022-09-09T00:24:56.766Z,1.80
2022-09-09T00:27:24.799Z,1.58
2022-09-09T00:29:55.521Z,1.70
2022-09-09T00:32:20.665Z,1.85
2022-09-09T00:34:50.518Z,2.30
2022-09-09T00:37:13.738Z,1.88
2022-09-09T00:39:46.139Z,1.58
2022-09-09T00:42:15.646Z,1.55
2022-09-09T00:44:40.721Z,1.30
2022-09-09T00:47:21.559Z,2.00
2022-09-09T00:49:50.226Z,1.70
2022-09-09T00:52:21.643Z,2.08
2022-09-09T00:54:48.750Z,1.38
2022-09-09T00:57:18.965Z,1.90
2022-09-09T00:59:47.853Z,1.45
2022-09-09T01:02:14.942Z,1.23
2022-09-09T01:04:39.549Z,2.05
2022-09-09T01:07:06.378Z,1.35
2022-09-09T01:09:31.236Z,1.58
2022-09-09T01:11:57.971Z,1.88
2022-09-09T01:14:33.574Z,1.15
2022-09-09T01:16:57.326Z,1.35
2022-09-09T01:19:24.906Z,1.70
2022-09-09T01:21:51.305Z,1.90
2022-09-09T01:24:22.126Z,1.90
2022-09-09T01:27:05.397Z,1.52
2022-09-09T01:29:28.882Z,1.52
2022-09-09T01:31:56.420Z,1.25
2022-09-09T01:34:19.726Z,1.30
2022-09-09T01:36:45.086Z,1.27
2022-09-09T01:39:08.782Z,1.60
2022-09-09T01:41:33.029Z,1.35
2022-09-09T01:44:01.731Z,1.63
2022-09-09T01:46:26.702Z,1.30
2022-09-09T01:48:50.028Z,1.73
2022-09-09T01:51:13.309Z,1.08
2022-09-09T01:53:36.637Z,1.35
2022-09-09T01:56:07.559Z,1.40
2022-09-09T01:58:36.571Z,1.33
2022-09-09T02:01:07.090Z,2.00
2022-09-09T02:03:30.678Z,1.55
2022-09-09T02:06:04.283Z,1.42
2022-09-09T02:08:31.380Z,1.25
2022-09-09T02:11:02.725Z,1.35
2022-09-09T02:13:33.043Z,1.20
2022-09-09T02:15:58.182Z,1.65
2022-09-09T02:18:25.732Z,1.50
2022-09-09T02:20:49.027Z,1.45
2022-09-09T02:23:12.383Z,1.88
2022-09-09T02:25:35.917Z,1.33
2022-09-09T02:28:10.669Z,1.60
2022-09-09T02:30:35.229Z,0.90
2022-09-09T02:32:59.074Z,1.00
2022-09-09T02:35:37.535Z,2.00
2022-09-09T02:38:03.592Z,1.50
2022-09-09T02:40:27.478Z,1.50
2022-09-09T02:42:56.668Z,2.55
2022-09-09T02:45:21.161Z,1.75
2022-09-09T02:47:49.555Z,1.50
2022-09-09T02:50:15.075Z,1.13
2022-09-09T02:52:47.577Z,1.98
2022-09-09T02:55:14.043Z,2.00
2022-09-09T02:57:37.461Z,2.35
2022-09-09T03:02:27.916Z,1.48
2022-09-09T03:04:57.032Z,2.17
2022-09-09T03:07:20.373Z,1.55
2022-09-09T03:09:45.566Z,1.88
2022-09-09T03:12:08.939Z,1.67
2022-09-09T03:14:32.291Z,1.67
2022-09-09T03:16:55.837Z,2.47
2022-09-09T03:19:20.645Z,2.03
2022-09-09T03:21:44.202Z,2.03
2022-09-09T03:24:07.647Z,1.70
2022-09-09T03:26:32.830Z,1.88
2022-09-09T03:28:56.627Z,2.03
2022-09-09T03:31:20.958Z,1.85
2022-09-09T03:33:44.278Z,2.38
2022-09-09T03:36:11.573Z,2.25
2022-09-09T03:38:35.710Z,2.40
2022-09-09T03:40:59.773Z,2.42
2022-09-09T03:43:24.649Z,2.60
2022-09-09T03:45:49.500Z,2.55
2022-09-09T03:48:13.319Z,3.22
2022-09-09T03:50:36.571Z,2.33
2022-09-09T03:52:59.717Z,2.47
2022-09-09T03:55:22.906Z,3.67
2022-09-09T03:57:47.105Z,3.17
2022-09-09T04:00:12.886Z,2.72
2022-09-09T04:02:48.052Z,2.88
2022-09-09T04:05:12.869Z,3.28
2022-09-09T04:07:38.362Z,3.78
2022-09-09T04:10:01.904Z,3.80
2022-09-09T04:14:49.594Z,3.63
2022-09-09T04:17:14.280Z,3.60
2022-09-09T04:22:00.928Z,3.83
2022-09-09T04:24:24.147Z,3.80
2022-09-09T04:26:48.203Z,3.38
2022-09-09T04:29:11.609Z,3.08
2022-09-09T04:31:35.751Z,4.40
2022-09-09T04:34:03.296Z,4.10
2022-09-09T04:36:26.866Z,3.97
2022-09-09T04:38:54.796Z,3.17
2022-09-09T04:41:18.650Z,3.65
2022-09-09T04:43:45.511Z,4.78
2022-09-09T04:46:10.739Z,4.80
2022-09-09T04:48:34.063Z,3.67
2022-09-09T04:51:00.246Z,4.18
2022-09-09T04:53:24.247Z,4.05
2022-09-09T04:55:47.499Z,4.23
2022-09-09T04:58:10.639Z,4.68
2022-09-09T05:00:34.676Z,4.68
2022-09-09T05:02:59.105Z,4.78
2022-09-09T05:05:22.311Z,4.78
2022-09-09T05:07:48.271Z,5.25
2022-09-09T05:10:11.875Z,4.68
2022-09-09T05:12:35.612Z,4.50
2022-09-09T05:14:58.803Z,3.03
2022-09-09T05:17:22.378Z,4.00
2022-09-09T05:19:45.629Z,3.27
2022-09-09T05:22:08.806Z,3.38
2022-09-09T05:24:40.222Z,3.30
2022-09-09T05:27:04.170Z,3.17
2022-09-09T05:29:27.678Z,2.70
2022-09-09T05:31:52.634Z,2.67
2022-09-09T05:34:17.736Z,2.80
2022-09-09T05:36:40.942Z,2.25
2022-09-09T05:39:05.092Z,2.05
2022-09-09T05:41:31.408Z,2.00
2022-09-09T05:43:56.770Z,1.98
2022-09-09T05:46:21.395Z,2.05
2022-09-09T05:48:48.388Z,1.65
2022-09-09T05:51:19.904Z,1.92
2022-09-09T05:53:43.797Z,1.25
2022-09-09T05:56:11.114Z,1.45
2022-09-09T05:58:36.305Z,1.40
2022-09-09T06:01:04.047Z,1.80
2022-09-09T06:03:28.383Z,2.17
2022-09-09T06:05:59.531Z,1.67
2022-09-09T06:08:24.104Z,1.23
2022-09-09T06:10:47.299Z,1.33
2022-09-09T06:13:11.086Z,1.40
2022-09-09T06:15:37.042Z,1.98
2022-09-09T06:18:00.634Z,1.38
2022-09-09T06:20:24.066Z,1.63
2022-09-09T06:22:47.826Z,1.85
2022-09-09T06:25:11.965Z,1.63
2022-09-09T06:27:36.086Z,1.48
2022-09-09T06:29:59.211Z,1.38
2022-09-09T06:32:23.978Z,1.35
2022-09-09T06:34:48.004Z,1.45
2022-09-09T06:37:11.521Z,1.55
2022-09-09T06:39:40.141Z,1.00
2022-09-09T06:42:03.600Z,1.38
2022-09-09T06:45:02.222Z,1.20
2022-09-09T06:47:34.673Z,1.38
2022-09-09T06:49:58.182Z,2.00
2022-09-09T06:52:22.380Z,1.20
2022-09-09T06:54:46.968Z,1.20
2022-09-09T06:57:36.839Z,1.55
2022-09-09T06:59:55.477Z,0.80
2022-09-09T07:02:19.330Z,1.33
2022-09-09T07:04:44.218Z,1.35
2022-09-09T07:07:08.842Z,0.93
2022-09-09T07:09:32.453Z,1.17
2022-09-09T07:11:55.649Z,0.90
2022-09-09T07:14:20.711Z,1.02
2022-09-09T07:16:49.313Z,1.30
2022-09-09T07:19:15.109Z,1.50
2022-09-09T07:21:41.349Z,1.17
2022-09-09T07:24:08.376Z,1.65
2022-09-09T07:26:32.205Z,1.15
2022-09-09T07:28:58.212Z,0.93
2022-09-09T07:31:22.537Z,1.30
2022-09-09T07:33:46.181Z,1.48
2022-09-09T07:36:10.786Z,1.63
2022-09-09T07:38:40.114Z,1.13
2022-09-09T07:41:07.180Z,0.93
2022-09-09T07:43:30.505Z,1.65
2022-09-09T07:45:59.609Z,1.38
2022-09-09T07:48:22.847Z,1.20
2022-09-09T07:50:46.036Z,1.30
2022-09-09T07:53:09.334Z,2.05
2022-09-09T07:55:33.910Z,1.42
2022-09-09T07:57:57.888Z,1.63
2022-09-09T08:00:23.203Z,1.35
2022-09-09T08:02:50.611Z,0.93
2022-09-09T08:05:14.212Z,1.25
2022-09-09T08:07:37.741Z,0.93
2022-09-09T08:10:01.805Z,1.42
2022-09-09T08:12:29.314Z,1.85
2022-09-09T08:14:55.776Z,1.13
2022-09-09T08:17:21.025Z,1.17
2022-09-09T08:19:45.615Z,1.37
2022-09-09T08:22:13.833Z,1.50
2022-09-09T08:24:37.047Z,1.48
2022-09-09T08:27:00.481Z,2.88
2022-09-09T08:29:25.874Z,1.85
2022-09-09T08:31:51.330Z,1.00
2022-09-09T08:36:39.353Z,1.02
2022-09-09T08:39:03.186Z,1.52
2022-09-09T08:44:06.476Z,1.33
2022-09-09T08:46:35.100Z,0.60
2022-09-09T08:48:59.349Z,1.52
2022-09-09T08:53:47.382Z,0.88
2022-09-09T08:56:13.085Z,1.33
2022-09-09T08:58:44.240Z,2.75
2022-09-09T09:01:21.452Z,1.08
2022-09-09T09:03:54.548Z,1.20
2022-09-09T09:06:26.716Z,1.73
2022-09-09T09:08:52.497Z,1.38
2022-09-09T09:11:15.806Z,1.00
2022-09-09T09:13:44.053Z,1.20
2022-09-09T09:16:15.685Z,1.33
2022-09-09T09:18:38.906Z,2.65
2022-09-09T09:21:07.625Z,1.38
2022-09-09T09:23:34.277Z,1.65
2022-09-09T09:26:00.356Z,1.00
2022-09-09T09:28:25.698Z,1.02
2022-09-09T09:30:55.387Z,1.67
2022-09-09T09:33:20.597Z,1.10
2022-09-09T09:35:44.898Z,1.65
2022-09-09T09:41:01.906Z,1.30
2022-09-09T09:43:27.414Z,2.10
2022-09-09T09:46:07.235Z,1.10
2022-09-09T09:48:34.733Z,1.83
2022-09-09T09:50:59.849Z,1.15
2022-09-09T09:53:26.710Z,1.63
2022-09-09T09:55:54.058Z,0.90
2022-09-09T09:58:18.760Z,1.65
2022-09-09T10:00:50.524Z,0.98
2022-09-09T10:03:21.430Z,1.55
2022-09-09T10:05:47.758Z,1.23
2022-09-09T10:08:13.072Z,0.93
2022-09-09T10:10:47.937Z,1.58
2022-09-09T10:13:13.895Z,1.25
2022-09-09T10:15:41.688Z,1.00
2022-09-09T10:18:13.678Z,1.20
2022-09-09T10:20:41.094Z,1.52
2022-09-09T10:23:09.808Z,1.73
2022-09-09T10:25:45.294Z,1.30
2022-09-09T10:28:27.113Z,1.23
2022-09-09T10:30:55.310Z,1.30
2022-09-09T10:33:21.702Z,1.52
2022-09-09T10:35:47.145Z,1.50
2022-09-09T10:38:16.017Z,1.50
2022-09-09T10:40:41.383Z,1.45
2022-09-09T10:43:10.194Z,1.38
2022-09-09T10:45:35.813Z,1.13
2022-09-09T10:48:07.215Z,1.48
2022-09-09T10:51:04.691Z,1.42
2022-09-09T10:53:37.644Z,1.25
2022-09-09T10:56:05.373Z,1.65
2022-09-09T10:58:34.520Z,1.77
2022-09-09T11:00:59.563Z,1.50
2022-09-09T11:03:24.251Z,1.58
2022-09-09T11:05:49.702Z,1.45
2022-09-09T11:08:14.465Z,1.33
2022-09-09T11:10:41.113Z,1.27
2022-09-09T11:13:06.519Z,1.25
2022-09-09T11:15:31.799Z,1.52
2022-09-09T11:17:57.695Z,1.48
2022-09-09T11:20:21.013Z,1.20
2022-09-09T11:22:47.373Z,1.75
2022-09-09T11:25:12.899Z,1.33
2022-09-09T11:27:38.661Z,1.30
2022-09-09T11:30:51.609Z,1.50
2022-09-09T11:33:22.278Z,1.35
2022-09-09T11:35:52.647Z,1.08
2022-09-09T11:38:20.821Z,1.63
2022-09-09T11:40:44.549Z,1.55
2022-09-09T11:43:10.843Z,1.73
2022-09-09T11:45:36.514Z,1.48
2022-09-09T11:48:00.133Z,1.73
2022-09-09T11:50:31.562Z,1.27
2022-09-09T11:53:25.189Z,1.10
2022-09-09T11:55:48.511Z,1.48
2022-09-09T11:58:18.047Z,1.10
2022-09-09T12:00:45.421Z,1.38
2022-09-09T12:03:10.254Z,1.38
2022-09-09T12:05:40.821Z,2.05
2022-09-09T12:08:04.605Z,1.58
2022-09-09T12:10:29.133Z,1.00
2022-09-09T12:15:29.943Z,1.52
2022-09-09T12:17:57.234Z,1.15
2022-09-09T12:20:25.821Z,1.67
2022-09-09T12:22:56.253Z,1.60
2022-09-09T12:25:25.004Z,1.42
2022-09-09T12:27:51.516Z,1.20
2022-09-09T12:30:16.465Z,1.38
2022-09-09T12:32:39.623Z,1.77
2022-09-09T12:35:06.248Z,1.58
2022-09-09T12:37:31.622Z,1.33
2022-09-09T12:39:56.762Z,1.13
2022-09-09T12:42:20.836Z,1.38
2022-09-09T12:44:53.085Z,1.30
2022-09-09T12:47:16.272Z,1.27
2022-09-09T12:49:40.657Z,2.08
2022-09-09T12:54:30.143Z,1.60
2022-09-09T12:56:53.282Z,1.80
2022-09-09T12:59:24.396Z,1.30
2022-09-09T13:01:47.729Z,1.15
2022-09-09T13:04:21.332Z,2.00
2022-09-09T13:06:44.499Z,1.10
2022-09-09T13:09:11.154Z,1.95
2022-09-09T13:11:37.680Z,1.38
2022-09-09T13:14:00.871Z,1.10
2022-09-09T13:16:25.490Z,1.60
2022-09-09T13:18:48.926Z,1.75
2022-09-09T13:21:12.163Z,1.40
2022-09-09T13:23:36.287Z,1.45
2022-09-09T13:26:01.731Z,1.75
2022-09-09T13:28:26.631Z,1.85
2022-09-09T13:31:03.236Z,2.13
2022-09-09T13:33:26.703Z,2.58
2022-09-09T13:35:51.152Z,2.35
2022-09-09T13:38:16.028Z,2.72
2022-09-09T13:40:39.723Z,3.17
2022-09-09T13:43:04.485Z,3.00
2022-09-09T13:45:28.446Z,4.25
2022-09-09T13:47:53.647Z,3.20
2022-09-09T13:50:23.606Z,4.78
2022-09-09T13:52:46.944Z,2.65
2022-09-09T13:55:11.373Z,2.70
2022-09-09T14:00:04.988Z,2.97
2022-09-09T14:02:28.659Z,4.75
2022-09-09T14:04:56.086Z,3.65
2022-09-09T14:07:19.813Z,3.80
2022-09-09T14:09:43.029Z,4.22
2022-09-09T14:12:06.582Z,2.97
2022-09-09T14:14:29.746Z,3.47
2022-09-09T14:16:54.340Z,2.28
2022-09-09T14:19:17.653Z,2.33
2022-09-09T14:21:40.923Z,2.85
2022-09-09T14:24:04.510Z,2.35
2022-09-09T14:26:29.834Z,3.07
2022-09-09T14:28:55.966Z,2.53
2022-09-09T14:31:19.727Z,2.13
2022-09-09T14:33:44.264Z,2.43
2022-09-09T14:36:07.918Z,2.10
2022-09-09T14:38:31.890Z,1.80
2022-09-09T14:40:55.082Z,2.72
2022-09-09T14:43:18.313Z,2.42
2022-09-09T14:45:41.488Z,2.05
2022-09-09T14:48:05.579Z,2.33
2022-09-09T14:50:30.506Z,2.22
2022-09-09T14:52:53.787Z,2.80
2022-09-09T14:55:17.223Z,2.38
2022-09-09T14:57:40.793Z,2.33
2022-09-09T15:00:04.862Z,3.37
2022-09-09T15:02:28.286Z,2.30
2022-09-09T15:04:52.342Z,2.42
2022-09-09T15:07:17.204Z,2.58
2022-09-09T15:09:40.374Z,2.08
2022-09-09T15:12:03.992Z,2.85
2022-09-09T15:14:27.459Z,2.30
2022-09-09T15:16:50.628Z,1.88
2022-09-09T15:19:13.982Z,2.03
2022-09-09T15:21:37.945Z,2.65
2022-09-09T15:24:02.571Z,2.08
2022-09-09T15:26:26.074Z,1.67
2022-09-09T15:28:50.775Z,3.20
2022-09-09T15:31:15.532Z,2.55
2022-09-09T15:33:39.064Z,2.15
2022-09-09T15:36:02.641Z,1.98
2022-09-09T15:38:26.018Z,1.90
2022-09-09T15:40:56.709Z,1.83
2022-09-09T15:43:19.944Z,2.10
2022-09-09T15:45:43.123Z,2.15
2022-09-09T15:48:06.405Z,2.53
2022-09-09T15:50:30.425Z,2.05
2022-09-09T15:52:54.011Z,2.28
2022-09-09T15:55:17.330Z,2.05
2022-09-09T15:57:41.918Z,2.08
2022-09-09T16:00:05.566Z,2.00
2022-09-09T16:02:28.833Z,2.40
2022-09-09T16:04:52.054Z,2.40
2022-09-09T16:07:15.505Z,1.77
2022-09-09T16:09:38.882Z,2.50
2022-09-09T16:12:03.246Z,2.47
2022-09-09T16:14:27.967Z,2.13
2022-09-09T16:16:51.330Z,2.03
2022-09-09T16:19:14.715Z,2.15
2022-09-09T16:21:39.119Z,2.38
2022-09-09T16:26:26.619Z,2.28
2022-09-09T16:28:49.797Z,2.47
2022-09-09T16:31:17.560Z,2.20
2022-09-09T16:33:40.748Z,2.70
2022-09-09T16:36:07.975Z,2.72
2022-09-09T16:38:31.339Z,2.47
2022-09-09T16:40:55.487Z,2.58
2022-09-09T16:43:18.640Z,2.78
2022-09-09T16:45:46.215Z,2.85
2022-09-09T16:48:10.730Z,2.30
2022-09-09T16:50:34.008Z,2.25
2022-09-09T16:52:57.135Z,2.75
2022-09-09T16:55:21.472Z,2.20
2022-09-09T16:57:44.683Z,2.05
2022-09-09T17:00:09.691Z,2.15
2022-09-09T17:02:32.905Z,1.83
2022-09-09T17:04:57.477Z,2.35
2022-09-09T17:09:43.734Z,2.17
2022-09-09T17:12:07.626Z,2.63
2022-09-09T17:14:32.815Z,2.17
2022-09-09T17:16:55.976Z,2.17
2022-09-09T17:19:19.253Z,2.65
2022-09-09T17:22:05.951Z,2.65
2022-09-09T17:24:27.576Z,3.00
2022-09-09T17:26:50.730Z,2.73
2022-09-09T17:29:14.003Z,2.55
2022-09-09T17:31:37.193Z,1.98
2022-09-09T17:34:00.583Z,2.47
2022-09-09T17:36:24.996Z,2.63
2022-09-09T17:41:14.220Z,2.25
2022-09-09T17:43:38.726Z,2.15
2022-09-09T17:48:32.521Z,2.00
2022-09-09T17:51:00.357Z,1.90
2022-09-09T17:53:23.490Z,3.17
2022-09-09T17:55:52.489Z,2.15
2022-09-09T17:58:16.810Z,2.55
2022-09-09T18:00:40.099Z,1.85
2022-09-09T18:03:03.793Z,1.80
2022-09-09T18:05:27.042Z,3.08
2022-09-09T18:07:50.747Z,2.17
2022-09-09T18:10:13.902Z,2.40
2022-09-09T18:12:38.503Z,1.70
2022-09-09T18:17:28.166Z,2.03
2022-09-09T18:19:51.431Z,2.80
2022-09-09T18:22:14.624Z,2.22
2022-09-09T18:24:38.308Z,1.77
2022-09-09T18:27:01.866Z,2.30
2022-09-09T18:29:26.834Z,2.25
2022-09-09T18:31:50.016Z,2.10
2022-09-09T18:34:13.836Z,1.83
2022-09-09T18:36:37.975Z,2.20
2022-09-09T18:39:02.893Z,2.60
2022-09-09T18:41:27.367Z,1.50
2022-09-09T18:46:16.255Z,2.55
2022-09-09T18:48:39.664Z,1.73
2022-09-09T18:51:04.079Z,1.65
2022-09-09T18:53:27.398Z,2.00
2022-09-09T18:56:00.170Z,2.75
2022-09-09T18:58:23.398Z,2.35
2022-09-09T19:00:47.557Z,1.30
2022-09-09T19:03:12.100Z,1.70
2022-09-09T19:05:35.836Z,1.63
2022-09-09T19:07:59.128Z,1.80
2022-09-09T19:10:22.295Z,1.23
2022-09-09T19:12:45.520Z,1.73
2022-09-09T19:15:09.265Z,2.35
2022-09-09T19:17:33.576Z,2.58
2022-09-09T19:22:21.207Z,1.75
2022-09-09T19:24:45.829Z,1.95
2022-09-09T19:27:08.990Z,1.60
2022-09-09T19:29:33.111Z,1.65
2022-09-09T19:34:41.014Z,1.23
2022-09-09T19:37:05.693Z,1.48
2022-09-09T19:39:28.886Z,1.70
2022-09-09T19:41:52.046Z,1.80
2022-09-09T19:44:16.203Z,1.65
2022-09-09T19:46:39.608Z,1.45
2022-09-09T19:49:02.991Z,2.10
2022-09-09T19:51:26.598Z,2.00
2022-09-09T19:53:53.848Z,1.57
2022-09-09T19:56:17.337Z,2.03
2022-09-09T19:58:41.086Z,2.10
2022-09-09T20:01:10.874Z,1.65
2022-09-09T20:03:34.356Z,2.08
2022-09-09T20:05:57.538Z,1.90
2022-09-09T20:08:20.789Z,2.22
2022-09-09T20:10:53.292Z,1.25
2022-09-09T20:13:16.464Z,1.27
2022-09-09T20:15:39.781Z,1.65
2022-09-09T20:18:04.642Z,1.52
2022-09-09T20:20:28.421Z,1.52
2022-09-09T20:22:51.714Z,1.77
2022-09-09T20:25:15.354Z,1.90
2022-09-09T20:27:39.924Z,1.90
2022-09-09T20:30:03.109Z,2.30
2022-09-09T20:32:26.410Z,1.40
2022-09-09T20:34:49.574Z,3.05
2022-09-09T20:37:13.715Z,2.47
2022-09-09T20:39:37.336Z,2.30
2022-09-09T20:42:00.557Z,2.05
2022-09-09T20:44:25.213Z,1.60
2022-09-09T20:46:49.580Z,2.33
2022-09-09T20:51:36.462Z,1.92
2022-09-09T20:54:00.501Z,2.10
2022-09-09T20:56:23.748Z,1.63
2022-09-09T20:58:47.035Z,2.25
2022-09-09T21:01:15.259Z,1.80
2022-09-09T21:03:38.559Z,1.88
2022-09-09T21:06:01.706Z,2.38
2022-09-09T21:08:25.587Z,2.17
2022-09-09T21:10:49.408Z,1.90
2022-09-09T21:13:12.598Z,1.73
2022-09-09T21:15:35.879Z,1.75
2022-09-09T21:18:00.452Z,2.25
2022-09-09T21:20:23.886Z,1.65
2022-09-09T21:22:46.990Z,1.90
2022-09-09T21:25:11.323Z,1.67
2022-09-09T21:29:57.849Z,1.95
2022-09-09T21:32:21.441Z,2.90
2022-09-09T21:34:46.139Z,1.80
2022-09-09T21:37:09.653Z,1.45
2022-09-09T21:39:32.849Z,2.53
2022-09-09T21:41:59.061Z,1.80
2022-09-09T21:44:22.202Z,1.75
2022-09-09T21:46:45.517Z,1.60
2022-09-09T21:49:09.733Z,1.20
2022-09-09T21:51:34.392Z,1.52
2022-09-09T21:53:57.606Z,1.77
2022-09-09T21:56:20.761Z,1.80
2022-09-09T21:58:44.019Z,2.30
2022-09-09T22:01:10.031Z,1.38
2022-09-09T22:03:33.470Z,1.80
2022-09-09T22:05:56.674Z,2.00
2022-09-09T22:08:21.318Z,1.92
2022-09-09T22:10:45.808Z,1.63
2022-09-09T22:15:32.618Z,2.38
2022-09-09T22:17:55.781Z,1.98
2022-09-09T22:20:18.991Z,2.00
2022-09-09T22:22:42.171Z,3.00
2022-09-09T22:25:07.709Z,1.80
2022-09-09T22:27:30.908Z,1.50
2022-09-09T22:29:54.073Z,1.60
2022-09-09T22:32:17.410Z,2.15
2022-09-09T22:34:40.566Z,2.28
2022-09-09T22:37:03.903Z,1.60
2022-09-09T22:39:27.491Z,2.33
2022-09-09T22:41:52.026Z,1.52
2022-09-09T22:44:15.295Z,2.28
2022-09-09T22:46:38.593Z,2.35
2022-09-09T22:49:03.354Z,1.52
2022-09-09T22:51:26.546Z,2.85
2022-09-09T22:53:49.762Z,1.77
2022-09-09T22:56:14.645Z,2.15
2022-09-09T22:58:39.865Z,1.98
2022-09-09T23:01:08.203Z,2.10
2022-09-09T23:03:33.224Z,2.17
2022-09-09T23:05:57.605Z,2.58
2022-09-09T23:10:44.489Z,2.88
2022-09-09T23:13:08.807Z,1.83
2022-09-09T23:15:33.335Z,2.42
2022-09-09T23:17:56.695Z,1.73
2022-09-09T23:20:20.882Z,1.92
2022-09-09T23:22:44.227Z,3.47
2022-09-09T23:25:07.900Z,1.98
2022-09-09T23:27:31.373Z,3.05
2022-09-09T23:29:55.725Z,2.50
2022-09-09T23:34:45.353Z,2.20
2022-09-09T23:37:11.181Z,1.88
2022-09-09T23:39:34.375Z,2.22
2022-09-09T23:41:57.680Z,1.77
2022-09-09T23:44:21.351Z,2.08
2022-09-09T23:46:44.547Z,1.77
2022-09-09T23:49:09.723Z,1.77
2022-09-09T23:51:34.884Z,1.65
2022-09-09T23:53:59.153Z,1.75
2022-09-09T23:56:23.274Z,1.83
2022-09-09T23:58:46.874Z,2.28
